TimeCDT,TemperatureF,Dew PointF,Humidity,Sea Level PressureIn,VisibilityMPH,Wind Direction,Wind SpeedMPH,Gust SpeedMPH,PrecipitationIn,Events,Conditions,WindDirDegrees,DateUTC
12:54 AM,73.0,57.0,57,29.91,10.0,South,6.9,-,N/A,,Clear,180,2013-08-30 05:54:00
1:54 AM,73.0,55.9,55,29.91,10.0,South,6.9,-,N/A,,Clear,180,2013-08-30 06:54:00
2:54 AM,73.0,55.9,55,29.90,10.0,South,8.1,-,N/A,,Clear,190,2013-08-30 07:54:00
3:54 AM,70.0,55.9,61,29.89,10.0,SE,6.9,-,N/A,,Clear,140,2013-08-30 08:54:00
4:54 AM,68.0,55.9,65,29.89,10.0,SSE,9.2,-,N/A,,Clear,150,2013-08-30 09:54:00
5:54 AM,68.0,55.9,65,29.89,10.0,SSE,8.1,-,N/A,,Clear,150,2013-08-30 10:54:00
6:54 AM,64.9,55.9,73,29.90,10.0,South,5.8,-,N/A,,Clear,180,2013-08-30 11:54:00
7:54 AM,66.0,55.9,70,29.93,10.0,SSE,3.5,-,N/A,,Clear,150,2013-08-30 12:54:00
8:54 AM,72.0,57.0,59,29.94,10.0,SSW,3.5,-,N/A,,Clear,200,2013-08-30 13:54:00
9:54 AM,77.0,57.9,52,29.94,10.0,SW,3.5,-,N/A,,Clear,230,2013-08-30 14:54:00
10:54 AM,84.0,59.0,43,29.94,10.0,Calm,Calm,-,N/A,,Clear,0,2013-08-30 15:54:00
11:54 AM,91.9,59.0,33,29.92,10.0,East,5.8,-,N/A,,Clear,100,2013-08-30 16:54:00
12:54 PM,97.0,53.1,23,29.91,10.0,ESE,9.2,-,N/A,,Clear,110,2013-08-30 17:54:00
1:54 PM,98.1,50.0,20,29.89,10.0,East,5.8,-,N/A,,Clear,90,2013-08-30 18:54:00
2:54 PM,100.0,50.0,18,29.88,10.0,ENE,5.8,-,N/A,,Clear,70,2013-08-30 19:54:00
3:54 PM,99.0,52.0,21,29.86,10.0,SE,8.1,-,N/A,,Clear,140,2013-08-30 20:54:00
4:54 PM,100.0,50.0,18,29.84,10.0,ESE,8.1,16.1,N/A,,Clear,120,2013-08-30 21:54:00
5:54 PM,99.0,50.0,19,29.83,10.0,ESE,12.7,-,N/A,,Clear,120,2013-08-30 22:54:00
6:54 PM,97.0,52.0,22,29.84,10.0,ESE,9.2,-,N/A,,Clear,110,2013-08-30 23:54:00
7:54 PM,91.0,55.0,29,29.83,10.0,ESE,6.9,-,N/A,,Clear,120,2013-08-31 00:54:00
8:54 PM,82.9,57.0,41,29.85,10.0,ESE,6.9,-,N/A,,Clear,120,2013-08-31 01:54:00
9:54 PM,81.0,55.0,41,29.86,10.0,ESE,8.1,-,N/A,,Clear,110,2013-08-31 02:54:00
10:54 PM,78.1,55.0,45,29.86,10.0,SE,6.9,-,N/A,,Clear,130,2013-08-31 03:54:00
11:54 PM,75.9,55.9,50,29.85,10.0,SE,8.1,-,N/A,,Clear,130,2013-08-31 04:54:00